createdAt,value
2022-07-30T00:02:52.148Z,38.96
2022-07-30T00:07:54.684Z,38.49
2022-07-30T00:12:57.836Z,38.53
2022-07-30T00:18:00.191Z,38.09
2022-07-30T00:23:05.993Z,38.68
2022-07-30T00:28:08.609Z,38.44
2022-07-30T00:33:10.958Z,38.42
2022-07-30T00:38:13.345Z,38.26
2022-07-30T00:43:17.265Z,38.53
2022-07-30T00:48:19.822Z,37.95
2022-07-30T00:53:22.215Z,37.43
2022-07-30T00:58:24.748Z,36.81
2022-07-30T01:03:27.143Z,36.65
2022-07-30T01:08:29.519Z,37.14
2022-07-30T01:13:31.897Z,36.77
2022-07-30T01:19:01.644Z,36.90
2022-07-30T01:24:35.500Z,36.79
2022-07-30T01:29:40.424Z,37.40
2022-07-30T01:34:45.954Z,37.54
2022-07-30T01:39:50.236Z,37.31
2022-07-30T01:44:52.982Z,37.83
2022-07-30T01:49:56.997Z,37.52
2022-07-30T01:55:01.562Z,37.65
2022-07-30T02:00:07.372Z,37.95
2022-07-30T02:05:10.176Z,38.07
2022-07-30T02:10:18.347Z,38.37
2022-07-30T02:15:27.883Z,38.97
2022-07-30T02:20:33.467Z,38.72
2022-07-30T02:25:42.915Z,39.02
2022-07-30T02:30:50.336Z,38.50
2022-07-30T02:35:56.749Z,38.67
2022-07-30T02:41:02.473Z,38.46
2022-07-30T02:46:06.059Z,38.76
2022-07-30T02:51:11.030Z,38.36
2022-07-30T02:56:16.599Z,38.31
2022-07-30T03:01:22.308Z,38.92
2022-07-30T03:06:26.723Z,38.51
2022-07-30T03:11:31.266Z,39.04
2022-07-30T03:16:37.504Z,38.77
2022-07-30T03:21:42.897Z,38.82
2022-07-30T03:26:47.640Z,38.80
2022-07-30T03:31:50.671Z,38.40
2022-07-30T03:36:54.682Z,38.94
2022-07-30T03:41:57.383Z,38.52
2022-07-30T03:47:01.334Z,38.49
2022-07-30T03:52:05.087Z,38.27
2022-07-30T03:57:07.625Z,38.54
2022-07-30T04:02:10.593Z,38.61
2022-07-30T04:07:13.073Z,38.62
2022-07-30T04:12:15.595Z,38.35
2022-07-30T04:17:30.651Z,38.55
2022-07-30T04:22:53.410Z,40.40
2022-07-30T04:28:01.907Z,41.73
2022-07-30T04:33:07.033Z,42.53
2022-07-30T04:38:11.036Z,42.03
2022-07-30T04:43:13.600Z,41.93
2022-07-30T04:48:16.087Z,41.08
2022-07-30T04:53:20.327Z,40.72
2022-07-30T04:58:24.179Z,41.24
2022-07-30T05:03:27.342Z,41.29
2022-07-30T05:08:31.291Z,41.69
2022-07-30T05:13:34.810Z,41.72
2022-07-30T05:18:41.166Z,41.95
2022-07-30T05:23:50.054Z,41.64
2022-07-30T05:28:56.621Z,41.54
2022-07-30T05:34:03.037Z,41.18
2022-07-30T05:39:06.129Z,41.41
2022-07-30T05:44:08.893Z,40.71
2022-07-30T05:49:11.412Z,40.53
2022-07-30T05:54:13.827Z,40.02
2022-07-30T05:59:16.219Z,39.89
2022-07-30T06:04:18.644Z,40.24
2022-07-30T06:09:27.332Z,40.10
2022-07-30T06:14:39.080Z,40.19
2022-07-30T06:19:41.447Z,40.35
2022-07-30T06:24:43.851Z,40.01
2022-07-30T06:29:46.190Z,39.74
2022-07-30T06:34:55.143Z,39.74
2022-07-30T06:40:02.257Z,39.57
2022-07-30T06:50:42.411Z,39.12
2022-07-30T06:55:44.850Z,38.90
2022-07-30T07:00:47.258Z,38.32
2022-07-30T07:05:49.683Z,38.57
2022-07-30T07:10:52.257Z,38.26
2022-07-30T07:15:54.660Z,38.32
2022-07-30T07:20:57.022Z,37.70
2022-07-30T07:25:59.481Z,37.12
2022-07-30T07:31:01.909Z,36.75
2022-07-30T07:36:04.863Z,35.93
2022-07-30T07:41:07.284Z,35.59
2022-07-30T07:46:10.166Z,35.39
2022-07-30T07:51:12.658Z,34.48
2022-07-30T07:56:15.008Z,34.50
2022-07-30T08:01:17.862Z,34.64
2022-07-30T08:06:20.416Z,34.72
2022-07-30T08:11:22.864Z,34.54
2022-07-30T08:16:25.624Z,34.11
2022-07-30T08:21:28.039Z,33.32
2022-07-30T08:26:30.506Z,33.05
2022-07-30T08:31:33.834Z,32.65
2022-07-30T08:36:36.237Z,32.49
2022-07-30T08:41:38.715Z,32.33
2022-07-30T08:46:47.069Z,31.89
2022-07-30T08:51:51.714Z,31.77
2022-07-30T08:56:55.015Z,31.33
2022-07-30T09:02:10.332Z,31.57
2022-07-30T09:07:14.947Z,31.81
2022-07-30T09:12:41.620Z,31.39
2022-07-30T09:17:49.472Z,31.24
2022-07-30T09:22:54.550Z,31.18
2022-07-30T09:27:57.288Z,30.92
2022-07-30T09:33:00.293Z,31.15
2022-07-30T09:38:06.612Z,31.08
2022-07-30T09:43:12.469Z,30.83
2022-07-30T09:48:23.101Z,30.65
2022-07-30T09:53:25.757Z,30.11
2022-07-30T09:58:45.489Z,29.92
2022-07-30T10:03:49.442Z,29.81
2022-07-30T10:08:52.412Z,30.39
2022-07-30T10:13:57.231Z,29.95
2022-07-30T10:19:01.168Z,29.58
2022-07-30T10:24:04.754Z,29.44
2022-07-30T10:29:12.782Z,28.95
2022-07-30T10:34:23.624Z,28.86
2022-07-30T10:39:33.049Z,29.05
2022-07-30T10:45:17.182Z,28.91
2022-07-30T10:50:27.203Z,29.26
2022-07-30T10:55:36.550Z,29.42
2022-07-30T11:00:52.087Z,28.95
2022-07-30T11:06:24.322Z,28.96
2022-07-30T11:12:02.090Z,29.08
2022-07-30T11:16:53.608Z,28.53
2022-07-30T11:22:28.796Z,28.99
2022-07-30T11:27:45.486Z,28.73
2022-07-30T11:32:49.231Z,28.89
2022-07-30T11:38:04.312Z,28.09
2022-07-30T11:43:35.900Z,27.85
2022-07-30T11:48:42.370Z,27.59
2022-07-30T11:53:46.520Z,27.50
2022-07-30T11:58:50.250Z,27.45
2022-07-30T12:03:52.851Z,26.83
2022-07-30T12:08:58.726Z,26.55
2022-07-30T12:14:02.635Z,26.58
2022-07-30T12:19:06.678Z,26.30
2022-07-30T12:24:12.194Z,26.56
2022-07-30T12:29:24.619Z,26.68
2022-07-30T12:34:28.378Z,26.23
2022-07-30T12:39:31.878Z,26.62
2022-07-30T12:44:35.173Z,26.00
2022-07-30T12:49:48.648Z,26.14
2022-07-30T12:55:18.414Z,25.95
2022-07-30T13:00:23.542Z,25.72
2022-07-30T13:05:48.719Z,25.27
2022-07-30T13:11:00.426Z,25.29
2022-07-30T13:16:05.776Z,24.75
2022-07-30T13:21:11.855Z,24.70
2022-07-30T13:26:14.267Z,24.68
2022-07-30T13:31:16.618Z,24.53
2022-07-30T13:36:19.161Z,24.16
2022-07-30T13:41:21.995Z,24.27
2022-07-30T13:46:24.424Z,23.90
2022-07-30T13:51:27.040Z,23.84
2022-07-30T13:56:32.523Z,23.79
2022-07-30T14:01:36.446Z,23.45
2022-07-30T14:06:38.837Z,23.31
2022-07-30T14:11:41.255Z,23.33
2022-07-30T14:16:45.604Z,23.12
2022-07-30T14:21:48.189Z,22.49
2022-07-30T14:26:54.568Z,22.59
2022-07-30T14:32:01.113Z,21.91
2022-07-30T14:37:03.817Z,21.94
2022-07-30T14:42:06.922Z,21.76
2022-07-30T14:47:09.621Z,21.29
2022-07-30T14:52:12.008Z,21.18
2022-07-30T14:57:14.431Z,20.56
2022-07-30T15:02:16.789Z,20.29
2022-07-30T15:07:19.277Z,20.45
2022-07-30T15:12:26.607Z,20.07
2022-07-30T15:17:29.647Z,19.52
2022-07-30T15:22:31.998Z,19.57
2022-07-30T15:27:34.785Z,19.01
2022-07-30T15:32:37.692Z,18.77
2022-07-30T15:37:40.074Z,17.92
2022-07-30T15:42:45.966Z,18.17
2022-07-30T15:47:48.112Z,18.01
2022-07-30T15:52:50.908Z,17.67
2022-07-30T15:57:53.356Z,17.65
2022-07-30T16:02:56.749Z,17.56
2022-07-30T16:07:59.995Z,17.58
2022-07-30T16:13:04.130Z,17.90
2022-07-30T16:18:06.902Z,18.41
2022-07-30T16:23:13.369Z,19.05
2022-07-30T16:28:19.119Z,19.46
2022-07-30T16:33:21.467Z,19.89
2022-07-30T16:38:24.008Z,20.53
2022-07-30T16:43:26.422Z,21.86
2022-07-30T16:48:29.211Z,22.46
2022-07-30T16:53:31.639Z,23.18
2022-07-30T16:58:34.244Z,24.07
2022-07-30T17:03:36.872Z,24.76
2022-07-30T17:08:39.241Z,25.98
2022-07-30T17:13:41.624Z,27.04
2022-07-30T17:18:44.436Z,26.92
2022-07-30T17:23:46.844Z,27.15
2022-07-30T17:28:49.645Z,27.51
2022-07-30T17:33:52.276Z,28.20
2022-07-30T17:38:54.635Z,28.66
2022-07-30T17:43:57.272Z,29.65
2022-07-30T17:48:59.798Z,29.65
2022-07-30T17:54:06.368Z,30.18
2022-07-30T17:59:13.723Z,30.46
2022-07-30T18:04:16.348Z,30.92
2022-07-30T18:09:18.736Z,31.11
2022-07-30T18:14:21.221Z,31.34
2022-07-30T18:19:27.399Z,31.84
2022-07-30T18:24:30.090Z,32.15
2022-07-30T18:29:32.520Z,32.10
2022-07-30T18:34:37.317Z,32.18
2022-07-30T18:39:42.045Z,32.24
2022-07-30T18:44:44.572Z,32.55
2022-07-30T18:49:47.082Z,32.74
2022-07-30T18:54:49.900Z,32.74
2022-07-30T18:59:52.536Z,32.28
2022-07-30T19:04:56.238Z,31.88
2022-07-30T19:09:59.082Z,32.09
2022-07-30T19:15:01.701Z,32.30
2022-07-30T19:20:06.044Z,31.76
2022-07-30T19:25:08.951Z,31.34
2022-07-30T19:30:11.890Z,31.20
2022-07-30T19:35:14.650Z,31.49
2022-07-30T19:40:17.310Z,31.65
2022-07-30T19:45:20.961Z,32.01
2022-07-30T19:50:27.227Z,32.48
2022-07-30T19:55:34.895Z,32.63
2022-07-30T20:00:38.261Z,32.89
2022-07-30T20:11:07.530Z,33.89
2022-07-30T20:16:12.634Z,34.27
2022-07-30T20:21:16.607Z,34.64
2022-07-30T20:26:26.160Z,35.06
2022-07-30T20:31:31.623Z,34.59
2022-07-30T20:36:35.739Z,34.52
2022-07-30T20:41:39.515Z,35.05
2022-07-30T20:46:43.716Z,34.83
2022-07-30T20:51:50.315Z,34.71
2022-07-30T20:56:53.773Z,34.81
2022-07-30T21:01:57.056Z,34.60
2022-07-30T21:06:59.770Z,34.71
2022-07-30T21:12:04.398Z,34.95
2022-07-30T21:17:07.016Z,35.32
2022-07-30T21:22:13.173Z,34.96
2022-07-30T21:27:15.870Z,35.84
2022-07-30T21:32:20.382Z,35.69
2022-07-30T21:37:36.531Z,35.55
2022-07-30T21:42:48.511Z,35.66
2022-07-30T21:47:54.022Z,35.99
2022-07-30T21:52:57.242Z,36.15
2022-07-30T21:58:01.073Z,36.26
2022-07-30T22:03:03.886Z,36.23
2022-07-30T22:08:27.743Z,36.42
2022-07-30T22:13:35.014Z,36.94
2022-07-30T22:18:53.970Z,36.95
2022-07-30T22:23:59.827Z,37.34
2022-07-30T22:29:02.999Z,37.96
2022-07-30T22:34:11.359Z,38.77
2022-07-30T22:39:14.110Z,38.72
2022-07-30T22:44:16.490Z,39.39
2022-07-30T22:49:25.260Z,39.44
2022-07-30T22:54:41.310Z,39.50
2022-07-30T22:59:58.095Z,39.41
2022-07-30T23:05:03.185Z,39.81
2022-07-30T23:10:12.365Z,40.29
2022-07-30T23:12:17.216Z,33.47
2022-07-30T23:15:21.636Z,40.37
2022-07-30T23:20:25.471Z,40.34
2022-07-30T23:25:34.591Z,40.49
2022-07-30T23:30:41.486Z,40.96
2022-07-30T23:35:44.275Z,41.31
2022-07-30T23:40:46.872Z,41.31
2022-07-30T23:45:49.224Z,41.62
2022-07-30T23:50:51.757Z,42.04
2022-07-30T23:55:54.181Z,41.90
